Time;durP1;ratioP1;P1;durP2;ratioP2;P2;SDS_P1;SDS_P2;PMS_P1;PMS_P2;Temp;Humidity;BMP_temperature;BMP_pressure;BME280_temperature;BME280_humidity;BME280_pressure;Samples;Min_cycle;Max_cycle;Signal;HPM_P1;HPM_P2
2023/05/09 00:00:11;;;;;;;26.00;16.00;;;;;;;8.96;100.00;96223.59;1029926;28;20030;-71
2023/05/09 00:00:42;;;;;;;28.23;16.75;;;;;;;8.92;100.00;96217.22;1029944;28;20062;-70
2023/05/09 00:01:13;;;;;;;29.05;15.85;;;;;;;8.98;100.00;96226.75;1025995;28;20066;-71
2023/05/09 00:01:44;;;;;;;24.90;15.93;;;;;;;8.98;100.00;96219.69;1026126;28;20034;-71
2023/05/09 00:02:15;;;;;;;28.08;16.20;;;;;;;8.96;100.00;96223.59;1025759;28;20027;-71
2023/05/09 00:02:45;;;;;;;23.55;15.00;;;;;;;8.98;100.00;96226.75;1025900;28;20289;-71
2023/05/09 00:03:15;;;;;;;25.02;15.63;;;;;;;8.97;100.00;96222.56;1021980;29;20042;-71
2023/05/09 00:03:46;;;;;;;24.42;15.88;;;;;;;8.93;100.00;96219.63;1018043;29;20027;-71
2023/05/09 00:04:16;;;;;;;26.95;16.63;;;;;;;8.96;100.00;96218.38;1013877;29;20080;-72
2023/05/09 00:04:47;;;;;;;28.60;16.10;;;;;;;8.96;100.00;96224.38;1018243;28;20096;-71
2023/05/09 00:05:18;;;;;;;25.70;15.48;;;;;;;8.93;100.00;96218.84;1021991;28;20046;-70
2023/05/09 00:05:48;;;;;;;29.10;15.73;;;;;;;8.95;100.00;96216.75;1025673;28;20034;-71
2023/05/09 00:06:19;;;;;;;24.77;15.35;;;;;;;8.92;100.00;96206.75;1018194;29;20641;-71
2023/05/09 00:06:49;;;;;;;23.67;15.32;;;;;;;8.92;100.00;96219.84;1026616;28;20014;-71
2023/05/09 00:07:20;;;;;;;23.65;15.32;;;;;;;8.90;100.00;96216.69;1022767;28;20477;-71
2023/05/09 00:07:50;;;;;;;24.70;15.43;;;;;;;8.87;100.00;96214.56;1024018;28;20048;-70
2023/05/09 00:08:21;;;;;;;23.73;15.32;;;;;;;8.87;100.00;96222.41;1030556;28;20034;-71
2023/05/09 00:08:51;;;;;;;24.85;15.73;;;;;;;8.86;100.00;96218.22;1030276;28;20045;-71
2023/05/09 00:09:22;;;;;;;26.30;16.65;;;;;;;8.84;100.00;96215.81;1036003;28;20029;-71
2023/05/09 00:09:52;;;;;;;25.75;16.48;;;;;;;8.84;100.00;96215.03;1038961;28;20033;-71
2023/05/09 00:10:23;;;;;;;23.63;15.13;;;;;;;8.83;100.00;96216.88;1034648;28;20729;-71
2023/05/09 00:10:53;;;;;;;28.25;18.15;;;;;;;8.85;100.00;96221.84;1030888;28;20031;-71
2023/05/09 00:11:24;;;;;;;26.85;16.70;;;;;;;8.83;100.00;96214.25;1022295;29;20050;-71
2023/05/09 00:11:54;;;;;;;24.90;16.02;;;;;;;8.81;100.00;96216.28;1022898;28;20063;-71
2023/05/09 00:12:26;;;;;;;25.95;17.35;;;;;;;8.82;100.00;96214.47;1026642;28;20517;-71
2023/05/09 00:12:57;;;;;;;24.17;15.30;;;;;;;8.80;100.00;96219.16;1025594;28;20058;-72
2023/05/09 00:13:28;;;;;;;26.70;15.90;;;;;;;8.75;100.00;96206.78;1030734;28;20295;-72
2023/05/09 00:13:58;;;;;;;29.10;15.57;;;;;;;8.81;100.00;96226.75;1026316;28;20266;-73
2023/05/09 00:14:29;;;;;;;28.38;16.65;;;;;;;8.72;100.00;96202.84;1026720;28;20039;-71
2023/05/09 00:14:59;;;;;;;25.63;16.25;;;;;;;8.77;100.00;96220.44;1030724;28;20078;-71
2023/05/09 00:15:30;;;;;;;25.20;14.75;;;;;;;8.76;100.00;96218.84;1026793;28;20652;-71
2023/05/09 00:16:02;;;;;;;24.95;15.20;;;;;;;8.71;100.00;96206.47;1026446;28;20027;-71
2023/05/09 00:16:32;;;;;;;24.27;16.52;;;;;;;8.70;100.00;96212.75;1026785;28;20038;-72
2023/05/09 00:17:03;;;;;;;26.88;15.93;;;;;;;8.73;100.00;96214.88;1026663;28;20274;-71
2023/05/09 00:17:35;;;;;;;25.52;15.63;;;;;;;8.74;100.00;96211.22;1026800;28;20127;-71
2023/05/09 00:18:05;;;;;;;26.63;16.38;;;;;;;8.73;100.00;96219.31;1022955;28;20023;-71
2023/05/09 00:18:36;;;;;;;25.08;16.17;;;;;;;8.73;100.00;96214.88;1026393;28;20819;-71
2023/05/09 00:19:07;;;;;;;26.35;15.90;;;;;;;8.67;100.00;96213.22;1026528;28;20111;-71
2023/05/09 00:19:38;;;;;;;30.02;15.98;;;;;;;8.72;100.00;96213.31;1018754;28;20041;-71
2023/05/09 00:20:11;;;;;;;26.75;16.60;;;;;;;8.68;100.00;96206.94;1022667;29;20115;-71
2023/05/09 00:20:43;;;;;;;23.10;15.35;;;;;;;8.71;100.00;96205.69;1018982;29;20580;-71
2023/05/09 00:21:13;;;;;;;26.58;16.08;;;;;;;8.70;100.00;96212.75;1019977;28;20274;-71
2023/05/09 00:21:44;;;;;;;25.80;15.68;;;;;;;8.63;100.00;96199.03;1023111;28;20270;-71
2023/05/09 00:22:15;;;;;;;24.52;14.65;;;;;;;8.63;100.00;96199.03;1022592;29;20026;-71
2023/05/09 00:22:46;;;;;;;24.83;16.00;;;;;;;8.70;100.00;96214.56;1014668;29;20503;-71
2023/05/09 00:23:16;;;;;;;26.17;16.02;;;;;;;8.70;100.00;96209.34;1015114;29;20360;-71
2023/05/09 00:23:47;;;;;;;26.45;15.60;;;;;;;8.70;100.00;96210.13;1018972;29;20580;-71
2023/05/09 00:24:17;;;;;;;25.30;16.13;;;;;;;8.72;100.00;96202.06;1023138;28;20122;-72
2023/05/09 00:24:48;;;;;;;24.27;15.52;;;;;;;8.73;100.00;96207.03;1034479;28;20034;-71
2023/05/09 00:25:18;;;;;;;26.95;16.65;;;;;;;8.74;100.00;96211.22;1030769;28;20022;-72
2023/05/09 00:25:49;;;;;;;27.45;16.70;;;;;;;8.74;100.00;96205.19;1026754;28;20027;-71
2023/05/09 00:26:21;;;;;;;23.67;15.00;;;;;;;8.74;100.00;96208.59;1026511;28;20404;-71
2023/05/09 00:26:51;;;;;;;23.90;16.20;;;;;;;8.70;100.00;96194.44;1022867;28;20442;-71
2023/05/09 00:27:22;;;;;;;25.35;16.00;;;;;;;8.76;100.00;96200.53;1022805;28;20271;-71
2023/05/09 00:27:52;;;;;;;25.10;15.40;;;;;;;8.78;100.00;96202.91;1026747;28;20102;-72
2023/05/09 00:28:22;;;;;;;24.02;15.38;;;;;;;8.80;100.00;96201.63;1026663;28;20350;-70
2023/05/09 00:28:53;;;;;;;25.77;16.05;;;;;;;8.82;100.00;96201.38;1026108;28;20031;-71
2023/05/09 00:29:23;;;;;;;24.73;15.52;;;;;;;8.82;100.00;96196.16;1026433;28;20027;-72
2023/05/09 00:29:54;;;;;;;25.42;15.45;;;;;;;8.84;100.00;96200.13;1022543;28;20434;-71
2023/05/09 00:30:24;;;;;;;22.95;14.82;;;;;;;8.85;100.00;96203.53;1026799;28;20046;-71
2023/05/09 00:30:55;;;;;;;27.10;15.15;;;;;;;8.82;100.00;96199.59;1026616;28;20022;-71
2023/05/09 00:31:26;;;;;;;23.95;15.05;;;;;;;8.86;100.00;96202.50;1030339;28;20031;-71
2023/05/09 00:31:57;;;;;;;24.45;14.88;;;;;;;8.87;100.00;96198.84;1030342;28;20101;-71
2023/05/09 00:32:28;;;;;;;25.38;15.25;;;;;;;8.87;100.00;96198.84;1026963;28;20023;-72
2023/05/09 00:32:58;;;;;;;27.77;15.93;;;;;;;8.89;100.00;96202.81;1030848;28;20081;-72
2023/05/09 00:33:28;;;;;;;25.08;15.75;;;;;;;8.89;100.00;96202.03;1030382;28;20026;-72
2023/05/09 00:33:59;;;;;;;27.85;17.33;;;;;;;8.93;100.00;96200.53;1026864;28;20105;-71
2023/05/09 00:34:29;;;;;;;23.20;14.73;;;;;;;8.93;100.00;96203.94;1026729;28;20094;-71
2023/05/09 00:35:00;;;;;;;23.52;15.45;;;;;;;8.93;100.00;96197.91;1025001;28;20039;-71
2023/05/09 00:35:31;;;;;;;24.90;15.45;;;;;;;8.95;100.00;96195.81;1026604;28;20035;-71
2023/05/09 00:36:01;;;;;;;23.35;15.63;;;;;;;8.94;100.00;96199.47;1022633;29;20094;-71
2023/05/09 00:36:32;;;;;;;28.20;15.60;;;;;;;8.95;100.00;96198.44;1023830;28;20150;-72
2023/05/09 00:37:02;;;;;;;23.42;15.85;;;;;;;8.95;100.00;96195.81;1030673;28;20543;-71
2023/05/09 00:37:33;;;;;;;26.15;16.40;;;;;;;8.96;100.00;96197.41;1034633;28;20030;-72
2023/05/09 00:38:03;;;;;;;26.20;15.90;;;;;;;8.96;100.00;96192.97;1038831;28;20044;-72
2023/05/09 00:38:33;;;;;;;24.55;15.20;;;;;;;8.98;100.00;96197.97;1038067;28;20061;-71
2023/05/09 00:39:04;;;;;;;24.48;15.45;;;;;;;8.97;100.00;96199.00;1034379;28;20030;-73
2023/05/09 00:39:34;;;;;;;23.60;15.52;;;;;;;8.98;100.00;96195.34;1034516;28;20403;-72
2023/05/09 00:40:06;;;;;;;23.13;15.52;;;;;;;8.91;100.00;96179.81;1034528;28;20637;-72
2023/05/09 00:40:36;;;;;;;23.08;15.15;;;;;;;8.97;100.00;96191.16;1030645;28;20023;-71
2023/05/09 00:41:07;;;;;;;26.42;16.23;;;;;;;8.97;100.00;96188.53;1026456;28;20803;-72
2023/05/09 00:41:37;;;;;;;23.05;14.55;;;;;;;8.96;100.00;96186.97;1016766;29;20414;-71
2023/05/09 00:42:08;;;;;;;23.42;15.27;;;;;;;8.96;100.00;96190.34;1018717;29;20032;-72
2023/05/09 00:42:38;;;;;;;24.50;15.75;;;;;;;8.95;100.00;96188.78;1022686;28;20519;-71
2023/05/09 00:43:09;;;;;;;24.38;14.95;;;;;;;8.94;100.00;96189.78;1026629;28;20034;-72
2023/05/09 00:43:40;;;;;;;26.50;15.60;;;;;;;8.95;100.00;96182.72;1026516;28;20031;-71
2023/05/09 00:44:10;;;;;;;24.10;15.88;;;;;;;8.94;100.00;96183.78;1030577;28;20443;-71
2023/05/09 00:44:41;;;;;;;23.63;14.80;;;;;;;8.94;100.00;96183.78;1022631;29;20030;-71
2023/05/09 00:45:11;;;;;;;24.98;14.40;;;;;;;8.96;100.00;96186.97;1022411;29;20031;-72
2023/05/09 00:45:43;;;;;;;24.08;14.60;;;;;;;8.96;100.00;96181.72;1018405;29;20042;-71
2023/05/09 00:46:13;;;;;;;23.77;15.07;;;;;;;8.95;100.00;96182.72;1026869;28;20062;-71
2023/05/09 00:46:43;;;;;;;25.80;15.52;;;;;;;8.90;100.00;96164.34;1034577;28;20295;-72
2023/05/09 00:47:14;;;;;;;24.17;15.27;;;;;;;8.96;100.00;96186.97;1027699;28;20019;-72
2023/05/09 00:47:44;;;;;;;23.85;14.77;;;;;;;8.92;100.00;96172.75;1026553;28;20472;-71
2023/05/09 00:48:15;;;;;;;22.38;15.55;;;;;;;8.95;100.00;96173.09;1022729;29;20023;-71
2023/05/09 00:48:45;;;;;;;25.20;15.07;;;;;;;8.93;100.00;96172.53;1026047;28;20049;-72
2023/05/09 00:49:16;;;;;;;23.25;15.35;;;;;;;8.94;100.00;96173.31;1022193;29;20459;-71
2023/05/09 00:49:46;;;;;;;21.70;14.15;;;;;;;8.93;100.00;96174.34;1022443;28;20455;-72
2023/05/09 00:50:17;;;;;;;22.63;14.73;;;;;;;8.93;100.00;96171.72;1022634;29;20023;-71
2023/05/09 00:50:51;;;;;;;25.50;15.43;;;;;;;8.89;100.00;96165.41;1022464;28;20031;-71
2023/05/09 00:51:22;;;;;;;22.65;13.95;;;;;;;8.93;100.00;96169.13;1023053;28;20118;-72
2023/05/09 00:51:53;;;;;;;22.60;14.98;;;;;;;8.88;100.00;96169.03;1019164;29;20933;-71
2023/05/09 00:52:24;;;;;;;21.05;13.98;;;;;;;8.87;100.00;96162.22;1014433;29;20103;-72
2023/05/09 00:52:55;;;;;;;26.40;15.50;;;;;;;8.90;100.00;96166.97;1018560;29;20263;-71
2023/05/09 00:53:25;;;;;;;26.52;13.95;;;;;;;8.88;100.00;96159.34;1022561;29;20030;-72
2023/05/09 00:53:56;;;;;;;20.80;14.30;;;;;;;8.88;100.00;96164.59;1022764;28;20034;-71
2023/05/09 00:54:26;;;;;;;22.85;14.73;;;;;;;8.87;100.00;96162.22;1026294;28;20030;-72
2023/05/09 00:54:57;;;;;;;23.33;15.30;;;;;;;8.86;100.00;96160.66;1022659;28;20035;-71
2023/05/09 00:55:27;;;;;;;24.10;15.63;;;;;;;8.86;100.00;96163.25;1022500;28;20442;-72
2023/05/09 00:55:58;;;;;;;26.05;15.25;;;;;;;8.83;100.00;96159.28;1022456;29;20032;-71
2023/05/09 00:56:29;;;;;;;24.33;15.63;;;;;;;8.82;100.00;96154.28;1018718;29;20028;-71
2023/05/09 00:57:00;;;;;;;23.50;15.20;;;;;;;8.82;100.00;96156.91;1026450;28;20993;-71
2023/05/09 00:57:30;;;;;;;23.13;14.82;;;;;;;8.83;100.00;96161.91;1022330;29;20509;-71
2023/05/09 00:58:02;;;;;;;21.58;15.25;;;;;;;8.80;100.00;96157.16;1022628;28;20501;-72
2023/05/09 00:58:32;;;;;;;24.70;15.07;;;;;;;8.81;100.00;96157.94;1022471;28;20035;-70
2023/05/09 00:59:03;;;;;;;27.02;15.10;;;;;;;8.80;100.00;96166.84;1022393;28;20267;-71
2023/05/09 00:59:33;;;;;;;24.48;14.85;;;;;;;8.80;100.00;96161.59;1026583;28;20067;-71
2023/05/09 01:00:05;;;;;;;25.83;15.40;;;;;;;8.80;100.00;96166.84;1022736;28;20035;-72
2023/05/09 01:00:35;;;;;;;21.95;14.52;;;;;;;8.77;100.00;96152.41;1026602;28;20066;-71
2023/05/09 01:01:07;;;;;;;24.25;14.57;;;;;;;8.73;100.00;96154.72;1030563;28;20340;-71
2023/05/09 01:01:37;;;;;;;23.52;14.88;;;;;;;8.78;100.00;96163.66;1027181;28;20030;-71
2023/05/09 01:02:08;;;;;;;22.58;15.02;;;;;;;8.70;100.00;96147.34;1034514;28;20264;-71
2023/05/09 01:02:42;;;;;;;23.98;15.70;;;;;;;8.70;100.00;96144.72;1026357;28;20031;-72
2023/05/09 01:03:12;;;;;;;22.50;14.82;;;;;;;8.73;100.00;96162.56;1023366;28;20426;-71
2023/05/09 01:03:43;;;;;;;21.25;13.85;;;;;;;8.68;100.00;96144.16;1022621;29;20279;-71
2023/05/09 01:04:13;;;;;;;22.08;14.45;;;;;;;8.68;100.00;96144.16;1018536;29;20027;-71
2023/05/09 01:04:44;;;;;;;23.48;14.60;;;;;;;8.73;100.00;96161.78;1026285;28;20030;-71
2023/05/09 01:05:15;;;;;;;23.45;15.38;;;;;;;8.71;100.00;96148.91;1022550;29;20030;-71
2023/05/09 01:05:55;;;;;;;25.58;14.77;;;;;;;8.70;100.00;96152.56;1018382;29;20287;-71
2023/05/09 01:06:45;;;;;;;25.38;14.13;;;;;;;8.66;100.00;96151.47;1019851;29;20379;-71
2023/05/09 01:07:28;;;;;;;22.48;14.57;;;;;;;8.67;100.00;96150.44;1030353;28;20313;-72
2023/05/09 01:08:02;;;;;;;24.40;14.02;;;;;;;8.64;100.00;96148.28;1030689;28;20034;-71
2023/05/09 01:08:55;;;;;;;23.33;14.02;;;;;;;8.64;100.00;96147.50;1025849;28;20352;-70
2023/05/09 01:09:37;;;;;;;20.85;12.55;;;;;;;8.58;100.00;96143.22;1018287;29;20260;-72
2023/05/09 01:10:34;;;;;;;23.65;13.52;;;;;;;8.61;100.00;96145.34;1019930;28;20271;-72
2023/05/09 01:11:35;;;;;;;22.80;13.15;;;;;;;8.60;100.00;96151.63;1006171;29;20321;-72
2023/05/09 01:12:12;;;;;;;24.45;14.50;;;;;;;8.58;100.00;96144.00;1017811;28;20801;-71
2023/05/09 01:12:58;;;;;;;23.90;13.95;;;;;;;8.54;100.00;96148.13;1020092;28;20523;-71
2023/05/09 01:13:53;;;;;;;19.13;12.00;;;;;;;8.56;100.00;96145.31;1022515;29;20311;-71
2023/05/09 01:14:36;;;;;;;25.00;14.60;;;;;;;8.48;100.00;96134.22;1029288;28;20266;-71
2023/05/09 01:15:31;;;;;;;24.60;13.65;;;;;;;8.53;100.00;96146.56;1022886;28;20271;-71
2023/05/09 01:16:17;;;;;;;26.65;14.10;;;;;;;8.52;100.00;96142.38;1022393;28;20251;-72
2023/05/09 01:17:00;;;;;;;22.40;13.55;;;;;;;8.50;100.00;96150.44;1027123;28;20694;-71
2023/05/09 01:17:40;;;;;;;22.92;14.63;;;;;;;8.50;100.00;96139.19;1021950;28;20314;-70
2023/05/09 01:18:30;;;;;;;25.50;13.75;;;;;;;8.43;100.00;96130.72;1021776;29;20828;-71
2023/05/09 01:19:35;;;;;;;24.50;14.02;;;;;;;8.47;100.00;96140.47;1017740;29;20263;-71
2023/05/09 01:20:27;;;;;;;26.65;14.38;;;;;;;8.45;100.00;96139.09;1013471;29;20272;-71
2023/05/09 01:21:07;;;;;;;31.08;14.98;;;;;;;8.36;100.00;96119.59;1024782;28;20776;-71
2023/05/09 01:21:38;;;;;;;23.90;14.13;;;;;;;8.40;100.00;96133.81;1022408;29;20297;-71
2023/05/09 01:22:08;;;;;;;22.42;13.45;;;;;;;8.37;100.00;96126.41;1026390;28;20038;-72
2023/05/09 01:22:44;;;;;;;27.35;13.90;;;;;;;8.36;100.00;96130.06;1018391;29;20621;-72
2023/05/09 01:23:43;;;;;;;22.60;13.60;;;;;;;8.34;100.00;96127.66;1014460;29;20047;-72
2023/05/09 01:24:39;;;;;;;21.85;13.23;;;;;;;8.34;100.00;96127.66;1018600;29;20796;-70
2023/05/09 01:25:24;;;;;;;25.92;13.43;;;;;;;8.31;100.00;96122.91;1029355;28;20272;-72
2023/05/09 01:25:57;;;;;;;26.40;14.68;;;;;;;8.29;100.00;96119.78;1031674;28;20261;-71
2023/05/09 01:26:46;;;;;;;22.95;13.27;;;;;;;8.30;100.00;96123.16;1030189;28;20845;-71
2023/05/09 01:27:21;;;;;;;23.55;13.95;;;;;;;8.26;100.00;96123.63;1026170;28;20886;-71
2023/05/09 01:27:57;;;;;;;22.20;12.85;;;;;;;8.24;100.00;96117.06;1022398;29;20815;-71
2023/05/09 01:28:33;;;;;;;21.80;14.20;;;;;;;8.22;100.00;96122.53;1022129;29;20392;-72
2023/05/09 01:29:35;;;;;;;25.10;14.30;;;;;;;8.25;100.00;96119.44;1020345;29;20272;-71
2023/05/09 01:30:06;;;;;;;23.50;13.43;;;;;;;8.21;100.00;96117.53;1011510;29;20368;-71
2023/05/09 01:30:37;;;;;;;21.13;12.82;;;;;;;8.23;100.00;96124.13;1022298;29;20886;-71
2023/05/09 01:31:07;;;;;;;20.42;12.57;;;;;;;8.23;100.00;96120.72;1022501;29;20038;-71
2023/05/09 01:31:40;;;;;;;21.95;13.73;;;;;;;8.24;100.00;96123.06;1020632;29;20127;-71
2023/05/09 01:32:16;;;;;;;23.38;13.98;;;;;;;8.22;100.00;96119.13;1014537;29;20113;-71
2023/05/09 01:32:48;;;;;;;23.75;14.32;;;;;;;8.21;100.00;96118.31;1022369;29;20303;-71
2023/05/09 01:33:19;;;;;;;22.55;13.85;;;;;;;8.09;100.00;96109.78;1023403;28;20267;-72
2023/05/09 01:33:52;;;;;;;23.40;13.07;;;;;;;8.17;100.00;96117.22;1022355;29;20810;-71
2023/05/09 01:34:25;;;;;;;22.75;14.70;;;;;;;8.22;100.00;96124.38;1022378;29;20054;-71
2023/05/09 01:34:58;;;;;;;21.75;13.23;;;;;;;8.17;100.00;96117.22;1028086;28;20891;-72
2023/05/09 01:35:29;;;;;;;25.20;15.10;;;;;;;8.21;100.00;96128.00;1022446;29;20377;-71
2023/05/09 01:36:03;;;;;;;23.13;14.60;;;;;;;8.21;100.00;96130.59;1022987;28;20278;-71
2023/05/09 01:36:33;;;;;;;23.25;15.05;;;;;;;8.17;100.00;96125.06;1018350;29;20055;-70
2023/05/09 01:37:04;;;;;;;20.17;13.20;;;;;;;8.21;100.00;96128.78;1018513;29;20302;-71
2023/05/09 01:37:35;;;;;;;23.50;14.05;;;;;;;8.17;100.00;96127.66;1018393;29;20024;-71
2023/05/09 01:38:11;;;;;;;27.88;15.45;;;;;;;8.13;100.00;96120.56;1018507;29;20027;-71
2023/05/09 01:38:43;;;;;;;21.92;14.38;;;;;;;8.18;100.00;96125.84;1017852;29;20092;-72
2023/05/09 01:39:13;;;;;;;21.45;13.77;;;;;;;8.18;100.00;96126.66;1014517;29;20318;-71
2023/05/09 01:39:46;;;;;;;23.15;14.15;;;;;;;8.16;100.00;96120.88;1022368;29;20776;-72
2023/05/09 01:40:19;;;;;;;21.63;13.27;;;;;;;8.18;100.00;96131.06;1022229;29;20015;-71
2023/05/09 01:40:51;;;;;;;24.23;14.60;;;;;;;8.17;100.00;96127.66;1023183;28;20274;-71
2023/05/09 01:41:22;;;;;;;20.08;13.50;;;;;;;8.17;100.00;96127.66;1024242;28;20379;-71
2023/05/09 01:41:52;;;;;;;22.85;13.60;;;;;;;8.17;100.00;96124.28;1021243;28;20352;-71
2023/05/09 01:42:23;;;;;;;22.83;14.13;;;;;;;8.14;100.00;96120.31;1026366;28;20730;-72
2023/05/09 01:43:03;;;;;;;25.83;14.25;;;;;;;8.15;100.00;96124.53;1022422;29;20026;-71
2023/05/09 01:43:33;;;;;;;21.40;13.90;;;;;;;8.17;100.00;96119.03;1027642;28;20902;-71
2023/05/09 01:44:05;;;;;;;22.55;13.68;;;;;;;8.13;100.00;96121.34;1022262;29;20023;-71
2023/05/09 01:44:37;;;;;;;22.85;14.00;;;;;;;8.16;100.00;96123.47;1018319;29;20027;-70
2023/05/09 01:45:09;;;;;;;20.10;13.10;;;;;;;8.16;100.00;96126.09;1018086;29;20274;-71
2023/05/09 01:45:39;;;;;;;27.42;14.73;;;;;;;8.16;100.00;96120.88;1022258;29;20891;-71
2023/05/09 01:46:10;;;;;;;21.13;13.95;;;;;;;8.15;100.00;96124.53;1026210;28;20256;-71
2023/05/09 01:46:40;;;;;;;22.98;13.63;;;;;;;8.11;100.00;96115.53;1022398;29;20381;-71
2023/05/09 01:47:11;;;;;;;22.35;14.20;;;;;;;8.15;100.00;96119.28;1022285;29;20015;-72
2023/05/09 01:47:41;;;;;;;20.67;12.80;;;;;;;8.11;100.00;96117.38;1018448;29;20028;-71
2023/05/09 01:48:12;;;;;;;22.48;14.30;;;;;;;8.08;100.00;96118.66;1022286;29;20485;-71
2023/05/09 01:48:42;;;;;;;21.23;13.90;;;;;;;8.09;100.00;96120.25;1017905;29;20020;-71
2023/05/09 01:49:12;;;;;;;21.88;14.20;;;;;;;8.11;100.00;96122.59;1022143;28;20019;-71
2023/05/09 01:49:43;;;;;;;21.55;13.98;;;;;;;8.09;100.00;96124.69;1030332;28;20097;-72
2023/05/09 01:50:13;;;;;;;20.88;13.60;;;;;;;8.01;100.00;96110.97;1022193;29;20477;-71
2023/05/09 01:50:44;;;;;;;21.92;14.57;;;;;;;8.01;100.00;96110.16;1020031;29;20015;-71
2023/05/09 01:51:15;;;;;;;21.08;14.05;;;;;;;8.04;100.00;96122.75;1018395;29;20028;-71
2023/05/09 01:51:45;;;;;;;19.63;13.48;;;;;;;8.02;100.00;96120.38;1026269;28;20527;-71
2023/05/09 01:52:16;;;;;;;20.85;13.75;;;;;;;8.02;100.00;96117.00;1018194;29;20616;-71
2023/05/09 01:52:48;;;;;;;23.67;14.40;;;;;;;8.01;100.00;96126.66;1026155;28;20127;-71
2023/05/09 01:53:18;;;;;;;21.80;13.90;;;;;;;7.94;100.00;96112.91;1026491;28;20027;-72
2023/05/09 01:53:49;;;;;;;23.02;14.13;;;;;;;7.92;100.00;96109.78;1026251;28;20269;-72
2023/05/09 01:54:19;;;;;;;21.92;14.18;;;;;;;7.97;100.00;96120.28;1022291;29;20019;-71
2023/05/09 01:54:50;;;;;;;25.77;14.98;;;;;;;7.95;100.00;96119.75;1022249;29;20023;-72
2023/05/09 01:55:21;;;;;;;22.88;13.93;;;;;;;7.92;100.00;96116.81;1022385;29;20509;-71
2023/05/09 01:55:51;;;;;;;20.67;13.82;;;;;;;7.93;100.00;96121.00;1024339;28;20022;-72
2023/05/09 01:56:22;;;;;;;24.00;14.43;;;;;;;7.95;100.00;96126.81;1022316;29;20031;-72
2023/05/09 01:56:53;;;;;;;20.25;13.07;;;;;;;7.94;100.00;96122.59;1026254;28;20484;-71
2023/05/09 01:57:24;;;;;;;23.98;14.50;;;;;;;7.93;100.00;96128.84;1022398;28;20028;-71
2023/05/09 01:57:54;;;;;;;24.08;13.88;;;;;;;7.89;100.00;96117.28;1026336;28;20313;-70
2023/05/09 01:58:25;;;;;;;20.58;13.77;;;;;;;7.86;100.00;96109.91;1022474;29;20035;-71
2023/05/09 01:58:55;;;;;;;24.73;14.00;;;;;;;7.85;100.00;96116.19;1013846;29;20076;-71
2023/05/09 01:59:26;;;;;;;21.65;13.60;;;;;;;7.87;100.00;96120.13;1022228;29;20042;-71
2023/05/09 01:59:57;;;;;;;24.90;13.98;;;;;;;7.88;100.00;96123.53;1022394;29;20054;-71
2023/05/09 02:00:27;;;;;;;24.10;15.15;;;;;;;7.86;100.00;96120.38;1022469;29;20035;-71
2023/05/09 02:00:59;;;;;;;23.17;15.23;;;;;;;7.88;100.00;96115.69;1020377;29;20267;-71
2023/05/09 02:01:29;;;;;;;21.98;14.32;;;;;;;7.86;100.00;96115.16;1022543;29;20062;-71
2023/05/09 02:02:01;;;;;;;24.52;15.07;;;;;;;7.87;100.00;96117.50;1022101;28;20293;-71
2023/05/09 02:02:32;;;;;;;20.33;13.50;;;;;;;7.88;100.00;96118.31;1018696;29;20084;-70
2023/05/09 02:03:02;;;;;;;24.83;14.73;;;;;;;7.84;100.00;96110.13;1018540;29;20379;-71
2023/05/09 02:03:33;;;;;;;28.10;16.48;;;;;;;7.84;100.00;96106.75;1022436;29;20043;-71
2023/05/09 02:04:04;;;;;;;23.98;13.85;;;;;;;7.86;100.00;96115.94;1018436;29;20035;-71
2023/05/09 02:04:34;;;;;;;26.35;14.70;;;;;;;7.86;100.00;96120.38;1018401;29;20043;-72
2023/05/09 02:05:05;;;;;;;24.02;14.95;;;;;;;7.87;100.00;96121.94;1022286;28;20023;-71
2023/05/09 02:05:36;;;;;;;22.13;13.68;;;;;;;7.85;100.00;96116.97;1018815;28;20055;-71
2023/05/09 02:06:06;;;;;;;21.88;13.90;;;;;;;7.85;100.00;96118.78;1022154;29;20699;-71
2023/05/09 02:06:37;;;;;;;23.25;14.75;;;;;;;7.80;100.00;96115.03;1022407;29;20030;-71
2023/05/09 02:07:07;;;;;;;26.92;14.75;;;;;;;7.84;100.00;96115.38;1014432;29;20080;-71
2023/05/09 02:07:38;;;;;;;23.58;14.80;;;;;;;7.86;100.00;96112.53;1015572;29;20399;-71
2023/05/09 02:08:09;;;;;;;23.00;14.02;;;;;;;7.84;100.00;96111.97;1022450;29;20023;-72
2023/05/09 02:08:40;;;;;;;22.40;13.68;;;;;;;7.79;100.00;96108.25;1021757;29;20677;-73
2023/05/09 02:09:10;;;;;;;25.10;15.35;;;;;;;7.86;100.00;96115.94;1018123;29;20114;-70
2023/05/09 02:09:40;;;;;;;22.35;14.13;;;;;;;7.86;100.00;96112.53;1026370;28;20094;-71
2023/05/09 02:10:11;;;;;;;22.80;13.65;;;;;;;7.85;100.00;96108.34;1022258;29;20038;-71
2023/05/09 02:10:41;;;;;;;22.70;14.05;;;;;;;7.77;100.00;96102.44;1018389;29;20041;-72
2023/05/09 02:11:12;;;;;;;23.63;15.02;;;;;;;7.86;100.00;96109.91;1018078;29;20028;-71
2023/05/09 02:11:42;;;;;;;25.23;15.10;;;;;;;7.82;100.00;96098.38;1018251;29;20101;-71
2023/05/09 02:12:13;;;;;;;23.08;14.40;;;;;;;7.80;100.00;96101.97;1018471;28;20418;-72
2023/05/09 02:12:43;;;;;;;22.13;13.82;;;;;;;7.84;100.00;96111.97;1022138;29;20027;-71
2023/05/09 02:13:14;;;;;;;24.17;16.13;;;;;;;7.80;100.00;96099.38;1018315;29;20023;-71
2023/05/09 02:13:44;;;;;;;23.92;15.45;;;;;;;7.83;100.00;96105.94;1014405;29;20028;-71
2023/05/09 02:14:15;;;;;;;27.27;15.93;;;;;;;7.82;100.00;96108.81;1014410;29;20078;-71
2023/05/09 02:14:45;;;;;;;24.33;13.70;;;;;;;7.84;100.00;96109.34;1014170;29;20562;-71
2023/05/09 02:15:16;;;;;;;25.70;15.30;;;;;;;7.79;100.00;96105.63;1014387;29;20797;-71
2023/05/09 02:15:46;;;;;;;23.00;13.63;;;;;;;7.83;100.00;96105.94;1018375;29;20111;-71
2023/05/09 02:16:17;;;;;;;25.70;14.80;;;;;;;7.83;100.00;96103.34;1022121;29;20027;-71
2023/05/09 02:16:48;;;;;;;23.48;14.50;;;;;;;7.75;100.00;96094.06;1026034;28;20505;-71
2023/05/09 02:17:20;;;;;;;22.80;14.25;;;;;;;7.84;100.00;96110.13;1026221;28;20269;-71
2023/05/09 02:17:50;;;;;;;22.40;14.88;;;;;;;7.83;100.00;96102.56;1022113;29;20456;-72
2023/05/09 02:18:21;;;;;;;25.15;15.18;;;;;;;7.85;100.00;96108.34;1018668;29;20275;-71
2023/05/09 02:18:52;;;;;;;23.20;13.95;;;;;;;7.85;100.00;96108.34;1022520;28;20038;-70
2023/05/09 02:19:22;;;;;;;23.05;14.50;;;;;;;7.84;100.00;96101.50;1030309;28;20037;-71
2023/05/09 02:19:53;;;;;;;23.98;14.43;;;;;;;7.84;100.00;96104.13;1030199;28;20027;-71
2023/05/09 02:20:23;;;;;;;23.10;14.52;;;;;;;7.83;100.00;96102.56;1030214;28;20033;-71
2023/05/09 02:20:53;;;;;;;23.95;14.07;;;;;;;7.83;100.00;96110.38;1030278;28;20026;-71
2023/05/09 02:21:24;;;;;;;21.40;14.60;;;;;;;7.80;100.00;96107.22;1026659;28;20495;-71
2023/05/09 02:21:54;;;;;;;23.42;13.82;;;;;;;7.80;100.00;96101.19;1022999;28;20066;-70
2023/05/09 02:22:25;;;;;;;24.13;14.15;;;;;;;7.82;100.00;96101.75;1018085;29;20031;-71
2023/05/09 02:22:55;;;;;;;23.85;14.13;;;;;;;7.82;100.00;96108.81;1019010;29;20035;-71
2023/05/09 02:23:26;;;;;;;21.00;14.02;;;;;;;7.80;100.00;96101.19;1023223;28;20024;-72
2023/05/09 02:23:57;;;;;;;24.30;14.85;;;;;;;7.80;100.00;96111.66;1027171;28;20484;-71
2023/05/09 02:24:27;;;;;;;25.15;15.50;;;;;;;7.78;100.00;96111.91;1022851;29;20677;-71
2023/05/09 02:24:59;;;;;;;21.10;13.30;;;;;;;7.77;100.00;96106.88;1018594;29;20039;-72
2023/05/09 02:25:30;;;;;;;23.52;13.63;;;;;;;7.71;100.00;96100.81;1022636;29;20023;-71
2023/05/09 02:26:01;;;;;;;23.65;13.93;;;;;;;7.72;100.00;96105.00;1022940;29;20270;-71
2023/05/09 02:26:31;;;;;;;23.02;14.98;;;;;;;7.74;100.00;96112.59;1014958;29;22788;-71
2023/05/09 02:27:03;;;;;;;25.75;14.50;;;;;;;7.71;100.00;96107.81;1022995;29;20027;-71
2023/05/09 02:27:33;;;;;;;25.67;14.45;;;;;;;7.72;100.00;96112.81;1018943;29;20035;-71
2023/05/09 02:28:04;;;;;;;22.23;14.35;;;;;;;7.65;100.00;96098.34;1018805;29;20898;-71
2023/05/09 02:28:34;;;;;;;24.33;15.27;;;;;;;7.65;100.00;96104.34;1018614;29;20553;-71
2023/05/09 02:29:06;;;;;;;23.67;14.50;;;;;;;7.69;100.00;96110.69;1022489;28;20111;-71
2023/05/09 02:29:40;;;;;;;26.20;16.30;;;;;;;7.68;100.00;96111.72;1022843;29;20079;-71